Time;durP1;ratioP1;P1;durP2;ratioP2;P2;SDS_P1;SDS_P2;PMS_P1;PMS_P2;Temp;Humidity;BMP_temperature;BMP_pressure;BME280_temperature;BME280_humidity;BME280_pressure;Samples;Min_cycle;Max_cycle;Signal;HPM_P1;HPM_P2
2021/11/11 00:01:14;;;;;;;37.37;19.53;;;;;;;14.32;63.54;100602.81;5094345;28;20542;-70
2021/11/11 00:03:46;;;;;;;40.60;21.40;;;;;;;14.41;63.18;100603.78;5094483;28;20060;-71
2021/11/11 00:06:13;;;;;;;33.73;17.57;;;;;;;14.41;63.14;100598.16;5082672;28;20086;-71
2021/11/11 00:08:40;;;;;;;31.20;16.53;;;;;;;14.29;63.44;100600.63;5089967;28;20420;-67
2021/11/11 00:11:07;;;;;;;35.10;16.90;;;;;;;14.20;63.93;100610.88;5087031;28;20142;-60
2021/11/11 00:13:34;;;;;;;30.43;16.17;;;;;;;13.97;64.31;100599.38;5089833;28;20044;-63
2021/11/11 00:16:02;;;;;;;33.00;15.60;;;;;;;13.79;65.38;100588.97;5094997;28;20078;-63
2021/11/11 00:18:29;;;;;;;34.70;16.43;;;;;;;13.60;65.23;100577.72;5062964;28;20082;-64
2021/11/11 00:20:56;;;;;;;25.50;15.20;;;;;;;13.71;65.49;100609.31;5060888;28;20453;-60
2021/11/11 00:23:23;;;;;;;34.77;16.53;;;;;;;13.58;65.52;100598.81;5060172;28;20076;-61
2021/11/11 00:25:50;;;;;;;20.90;12.27;;;;;;;13.49;66.02;100605.06;5070634;28;20183;-61
2021/11/11 00:28:17;;;;;;;25.97;14.47;;;;;;;13.16;67.32;100590.00;5069850;28;20569;-70
2021/11/11 00:30:44;;;;;;;24.53;12.93;;;;;;;13.13;67.97;100606.56;5075697;28;20099;-66
2021/11/11 00:33:11;;;;;;;19.47;9.83;;;;;;;12.97;68.57;100597.47;5051636;28;20339;-70
2021/11/11 00:35:38;;;;;;;41.70;17.00;;;;;;;13.02;68.95;100606.69;5064871;28;20454;-70
2021/11/11 00:38:05;;;;;;;26.47;14.00;;;;;;;12.95;69.45;100592.16;5067669;28;20468;-73
2021/11/11 00:40:33;;;;;;;27.07;12.30;;;;;;;12.95;70.10;100594.13;5078515;28;20110;-70
2021/11/11 00:43:01;;;;;;;25.03;12.53;;;;;;;12.95;70.19;100600.56;5077576;28;20286;-73
2021/11/11 00:45:28;;;;;;;32.70;15.47;;;;;;;13.00;70.55;100602.50;5076684;28;20480;-70
2021/11/11 00:47:56;;;;;;;35.50;15.70;;;;;;;13.07;70.04;100599.34;5066391;28;20055;-67
2021/11/11 00:50:25;;;;;;;32.00;15.20;;;;;;;13.15;69.88;100595.91;5062707;28;20076;-65
2021/11/11 00:52:52;;;;;;;29.30;14.73;;;;;;;13.13;69.98;100584.13;5056383;28;20128;-64
2021/11/11 00:55:19;;;;;;;34.17;16.93;;;;;;;13.19;69.80;100591.34;5084649;28;20137;-62
2021/11/11 00:57:50;;;;;;;40.37;16.83;;;;;;;13.22;69.56;100583.19;5072603;28;20063;-63
2021/11/11 01:00:19;;;;;;;34.30;16.23;;;;;;;13.24;69.51;100588.53;5081646;28;20556;-65
2021/11/11 01:02:47;;;;;;;36.50;17.30;;;;;;;13.18;69.51;100582.13;5065401;28;20187;-67
2021/11/11 01:05:15;;;;;;;32.83;16.77;;;;;;;13.27;69.24;100590.75;5059884;28;20068;-69
2021/11/11 01:07:42;;;;;;;35.03;17.77;;;;;;;13.26;69.22;100591.88;5064060;28;20076;-65
2021/11/11 01:10:12;;;;;;;43.10;18.57;;;;;;;13.25;69.02;100590.22;5071210;28;20463;-67
2021/11/11 01:12:40;;;;;;;39.10;18.43;;;;;;;13.21;68.88;100589.09;5066595;28;20381;-64
2021/11/11 01:15:10;;;;;;;34.87;18.03;;;;;;;13.07;69.06;100566.53;5077124;28;20250;-65
2021/11/11 01:17:36;;;;;;;21.55;14.10;;;;;;;13.07;69.03;100582.53;5085827;28;20051;-65
2021/11/11 01:20:05;;;;;;;37.73;18.77;;;;;;;13.02;68.93;100573.06;5090083;28;20489;-63
2021/11/11 01:22:32;;;;;;;30.27;17.40;;;;;;;12.98;69.15;100590.75;5091003;28;20172;-66
2021/11/11 01:24:59;;;;;;;30.43;14.93;;;;;;;12.87;69.16;100586.38;5084326;28;20068;-65
2021/11/11 01:27:26;;;;;;;19.73;10.53;;;;;;;12.75;69.29;100583.94;5083475;28;20453;-65
2021/11/11 01:29:56;;;;;;;18.88;8.93;;;;;;;12.66;69.10;100580.97;5095191;28;20052;-65
2021/11/11 01:32:23;;;;;;;28.57;15.37;;;;;;;12.64;69.03;100582.38;5097237;28;20050;-64
2021/11/11 01:34:50;;;;;;;26.83;11.87;;;;;;;12.46;68.92;100567.97;5087894;28;20925;-65
2021/11/11 01:37:17;;;;;;;26.80;13.20;;;;;;;12.56;68.76;100590.28;5092542;28;20407;-63
2021/11/11 01:39:44;;;;;;;31.33;13.83;;;;;;;12.57;68.78;100586.34;5089090;28;20062;-63
2021/11/11 01:42:11;;;;;;;28.47;15.63;;;;;;;12.49;68.48;100572.97;5091450;28;20044;-65
2021/11/11 01:44:45;;;;;;;29.77;16.33;;;;;;;12.65;68.01;100584.03;5083844;28;20091;-71
2021/11/11 01:47:12;;;;;;;27.57;14.97;;;;;;;12.69;67.68;100590.75;5090681;28;20119;-70
2021/11/11 01:49:39;;;;;;;34.47;16.23;;;;;;;12.70;67.46;100589.63;5083146;28;20048;-74
2021/11/11 01:52:08;;;;;;;29.97;13.07;;;;;;;12.68;67.39;100589.88;5085532;28;20484;-74
2021/11/11 01:54:35;;;;;;;19.70;12.77;;;;;;;12.62;67.58;100584.66;5079374;28;20484;-62
2021/11/11 01:57:03;;;;;;;21.27;12.53;;;;;;;12.50;67.74;100577.44;5086172;28;20126;-61
2021/11/11 01:59:30;;;;;;;26.67;10.97;;;;;;;12.41;67.93;100581.16;5088622;28;20139;-60
2021/11/11 02:01:57;;;;;;;18.43;10.40;;;;;;;12.34;68.21;100578.69;5082775;28;20465;-60
2021/11/11 02:04:24;;;;;;;20.37;12.00;;;;;;;12.32;68.10;100580.97;5091148;28;20459;-64
2021/11/11 02:06:51;;;;;;;13.47;6.43;;;;;;;12.27;67.99;100580.97;5088210;28;20089;-67
2021/11/11 02:09:19;;;;;;;23.23;12.60;;;;;;;12.19;68.08;100571.25;5075778;28;20079;-79
2021/11/11 02:11:48;;;;;;;27.47;14.37;;;;;;;12.24;68.12;100578.75;5082958;28;20083;-78
2021/11/11 02:14:15;;;;;;;18.87;10.53;;;;;;;12.11;68.10;100559.84;5087110;28;20560;-70
2021/11/11 02:16:42;;;;;;;19.23;10.83;;;;;;;12.24;67.93;100584.38;5072673;28;20576;-70
2021/11/11 02:19:09;;;;;;;20.33;11.63;;;;;;;12.16;68.05;100588.63;5065283;28;20053;-73
2021/11/11 02:21:38;;;;;;;9.30;5.20;;;;;;;12.05;68.36;100575.84;5067160;28;20088;-79
2021/11/11 02:24:06;;;;;;;21.00;8.77;;;;;;;12.04;68.41;100571.38;5067878;28;20125;-78
2021/11/11 02:26:33;;;;;;;28.97;13.50;;;;;;;12.05;68.37;100576.66;5063705;28;20064;-79
2021/11/11 02:29:00;;;;;;;20.73;8.53;;;;;;;12.14;67.96;100578.88;5065334;28;20135;-79
2021/11/11 02:31:26;;;;;;;17.03;7.67;;;;;;;12.11;67.76;100582.25;5070090;28;20131;-79
2021/11/11 02:33:56;;;;;;;22.97;11.13;;;;;;;12.13;67.66;100575.19;5072123;28;20124;-77
2021/11/11 02:36:22;;;;;;;26.60;10.70;;;;;;;12.14;67.83;100584.47;5071969;28;20452;-77
2021/11/11 02:38:49;;;;;;;15.53;9.87;;;;;;;12.05;67.62;100559.03;5074223;28;20563;-74
2021/11/11 02:41:20;;;;;;;25.73;13.93;;;;;;;12.23;67.39;100582.69;5071702;28;20055;-74
2021/11/11 02:43:47;;;;;;;22.93;9.73;;;;;;;12.25;67.36;100575.69;5066753;28;20119;-74
2021/11/11 02:46:14;;;;;;;20.07;11.13;;;;;;;12.27;67.32;100575.38;5065790;28;20476;-74
2021/11/11 02:48:41;;;;;;;27.60;13.23;;;;;;;12.29;67.15;100573.97;5066430;28;20079;-74
2021/11/11 02:51:08;;;;;;;25.70;14.53;;;;;;;12.29;67.08;100573.97;5067295;28;20139;-71
2021/11/11 02:53:39;;;;;;;20.53;12.70;;;;;;;12.29;66.95;100561.94;5054855;28;20075;-71
2021/11/11 02:56:06;;;;;;;27.50;14.03;;;;;;;12.33;66.90;100574.22;5071025;28;20127;-70
2021/11/11 02:58:33;;;;;;;26.27;13.57;;;;;;;12.27;66.93;100561.38;5075864;28;20071;-70
2021/11/11 03:01:03;;;;;;;25.60;12.50;;;;;;;12.26;66.70;100551.31;5072443;28;20127;-70
2021/11/11 03:03:31;;;;;;;22.97;9.97;;;;;;;12.17;66.78;100536.25;5061851;28;20056;-71
2021/11/11 03:05:58;;;;;;;27.57;12.97;;;;;;;12.26;66.55;100556.91;5048219;28;20127;-71
2021/11/11 03:08:25;;;;;;;26.00;14.43;;;;;;;12.30;66.48;100555.19;5080367;28;20135;-67
2021/11/11 03:10:52;;;;;;;28.13;13.90;;;;;;;12.35;66.26;100552.38;5067941;28;20519;-67
2021/11/11 03:13:19;;;;;;;25.87;13.97;;;;;;;12.35;66.22;100555.19;5072493;28;20551;-66
2021/11/11 03:15:46;;;;;;;20.80;11.20;;;;;;;12.32;66.13;100553.78;5070398;28;20483;-67
2021/11/11 03:18:14;;;;;;;21.57;11.03;;;;;;;12.21;66.41;100541.00;5065280;28;20136;-67
2021/11/11 03:20:40;;;;;;;17.17;8.47;;;;;;;12.26;66.28;100559.72;5073690;28;20128;-67
2021/11/11 03:23:07;;;;;;;23.00;10.70;;;;;;;12.25;66.35;100546.84;5071985;28;20592;-67
2021/11/11 03:25:36;;;;;;;20.80;12.13;;;;;;;12.24;66.31;100545.16;5068140;28;20041;-67
2021/11/11 03:28:04;;;;;;;26.43;13.67;;;;;;;12.10;66.27;100536.59;5069278;28;20431;-62
2021/11/11 03:30:33;;;;;;;22.13;10.13;;;;;;;12.16;66.29;100543.00;5063604;28;20535;-64
2021/11/11 03:33:02;;;;;;;16.17;9.10;;;;;;;12.07;66.40;100540.84;5060181;28;20151;-64
2021/11/11 03:35:29;;;;;;;12.80;7.20;;;;;;;11.91;66.90;100535.63;5066889;28;20140;-63
2021/11/11 03:38:01;;;;;;;21.30;11.37;;;;;;;11.91;67.01;100532.84;5073398;28;20099;-70
2021/11/11 03:40:31;;;;;;;15.33;7.60;;;;;;;11.86;67.14;100536.47;5068720;28;20460;-72
2021/11/11 03:42:59;;;;;;;14.37;7.27;;;;;;;11.78;67.21;100532.31;5068735;28;20075;-64
2021/11/11 03:45:27;;;;;;;14.67;9.47;;;;;;;11.90;67.11;100542.34;5063838;28;20126;-64
2021/11/11 03:47:55;;;;;;;13.30;7.03;;;;;;;11.87;67.25;100546.56;5057026;28;20548;-59
2021/11/11 03:50:23;;;;;;;4.80;3.20;;;;;;;11.83;67.33;100537.88;5066125;28;20488;-58
2021/11/11 03:52:50;;;;;;;23.53;10.63;;;;;;;11.82;67.28;100538.16;5062430;28;20083;-60
2021/11/11 03:55:22;;;;;;;24.90;11.37;;;;;;;11.89;67.19;100549.91;5070877;28;20083;-59
2021/11/11 03:57:51;;;;;;;24.20;10.53;;;;;;;11.88;67.23;100547.41;5059242;28;20135;-59
2021/11/11 04:00:19;;;;;;;20.23;9.97;;;;;;;11.79;67.29;100539.56;5063184;28;20083;-59
2021/11/11 04:02:46;;;;;;;11.13;7.60;;;;;;;11.92;67.07;100554.91;5070401;28;20072;-63
2021/11/11 04:05:14;;;;;;;23.50;10.93;;;;;;;11.92;66.80;100554.09;5057741;28;20136;-62
2021/11/11 04:07:41;;;;;;;32.30;13.67;;;;;;;11.98;66.53;100559.34;5060326;28;20132;-62
2021/11/11 04:10:09;;;;;;;22.37;11.17;;;;;;;12.03;66.25;100553.75;5065583;28;20088;-61
2021/11/11 04:12:57;;;;;;;19.40;11.17;;;;;;;12.07;65.80;100551.19;5067821;28;20048;-62
2021/11/11 04:15:24;;;;;;;24.47;12.80;;;;;;;12.24;65.44;100559.16;5065264;28;20143;-60
2021/11/11 04:17:51;;;;;;;26.67;11.10;;;;;;;12.25;65.22;100560.84;5069799;28;20056;-61
2021/11/11 04:20:18;;;;;;;25.97;12.47;;;;;;;12.20;65.22;100555.28;5063287;28;20058;-60
2021/11/11 04:22:45;;;;;;;24.73;11.80;;;;;;;12.18;65.07;100557.56;5065906;28;20068;-62
2021/11/11 04:25:16;;;;;;;22.40;11.30;;;;;;;12.14;65.17;100562.06;5069176;28;20091;-63
2021/11/11 04:27:53;;;;;;;21.13;11.33;;;;;;;12.16;64.94;100552.22;5080140;28;20132;-61
2021/11/11 04:30:28;;;;;;;17.93;11.13;;;;;;;12.18;64.92;100560.34;5058862;28;20072;-62
2021/11/11 04:32:55;;;;;;;24.13;12.37;;;;;;;12.24;64.73;100560.03;5060945;28;20056;-61
2021/11/11 04:35:23;;;;;;;23.47;12.57;;;;;;;12.34;64.32;100556.28;5057209;28;20132;-62
2021/11/11 04:43:51;;;;;;;24.13;12.10;;;;;;;12.29;64.41;100553.53;5065485;28;20131;-62
2021/11/11 04:46:10;;;;;;;24.00;11.40;;;;;;;12.14;64.34;100545.28;5051797;28;20532;-62
2021/11/11 05:04:34;;;;;;;18.97;9.90;;;;;;;12.08;64.09;100583.66;5067596;28;20576;-67
2021/11/11 05:07:02;;;;;;;20.23;10.30;;;;;;;12.05;64.02;100581.44;5065839;28;20052;-67
2021/11/11 05:09:29;;;;;;;20.07;10.43;;;;;;;12.07;64.03;100595.97;5050462;28;20143;-67
2021/11/11 05:11:56;;;;;;;19.73;10.27;;;;;;;12.06;63.72;100599.88;5065904;28;20559;-66
2021/11/11 05:14:23;;;;;;;20.33;10.83;;;;;;;12.11;63.62;100601.84;5067496;28;20040;-64
2021/11/11 05:16:50;;;;;;;20.37;10.60;;;;;;;11.91;63.90;100575.63;5071106;28;20087;-62
2021/11/11 05:19:16;;;;;;;17.40;9.83;;;;;;;12.03;63.84;100608.84;5068001;28;20408;-62
2021/11/11 05:21:43;;;;;;;22.77;9.90;;;;;;;11.93;64.01;100597.72;5070948;28;20072;-62
2021/11/11 05:24:11;;;;;;;16.30;9.03;;;;;;;11.90;64.15;100610.34;5075977;28;20068;-63
2021/11/11 05:26:40;;;;;;;18.00;11.07;;;;;;;11.83;64.40;100612.59;5066186;28;20087;-63
2021/11/11 05:29:07;;;;;;;20.73;9.93;;;;;;;11.76;64.69;100614.84;5065071;28;20041;-63
2021/11/11 05:31:34;;;;;;;20.93;10.50;;;;;;;11.66;64.76;100624.16;5074062;28;20143;-64
2021/11/11 05:34:02;;;;;;;20.77;11.40;;;;;;;11.62;65.00;100625.81;5062091;28;20054;-63
2021/11/11 05:36:28;;;;;;;21.53;10.83;;;;;;;11.14;64.95;100555.53;5066478;28;20136;-62
2021/11/11 05:38:55;;;;;;;19.47;10.20;;;;;;;11.65;65.03;100628.03;5071169;28;20127;-63
2021/11/11 05:41:22;;;;;;;22.03;11.33;;;;;;;11.60;64.60;100617.72;5070707;28;20043;-64
2021/11/11 05:43:49;;;;;;;22.10;11.43;;;;;;;11.72;64.53;100622.16;5071955;28;22782;-66
2021/11/11 05:46:16;;;;;;;18.80;11.57;;;;;;;11.72;64.56;100616.53;5075583;28;20079;-66
2021/11/11 05:48:43;;;;;;;22.17;11.93;;;;;;;11.69;64.21;100600.34;5068415;28;20055;-65
2021/11/11 05:51:10;;;;;;;21.93;11.47;;;;;;;11.83;64.04;100618.19;5073705;28;20041;-64
2021/11/11 05:53:37;;;;;;;29.07;12.17;;;;;;;11.89;63.95;100622.66;5074354;28;20143;-65
2021/11/11 05:56:04;;;;;;;21.43;10.77;;;;;;;11.99;63.59;100622.59;5071043;28;20076;-66
2021/11/11 05:58:31;;;;;;;26.13;11.63;;;;;;;11.97;63.51;100605.28;5074709;28;20056;-65
2021/11/11 06:00:58;;;;;;;19.97;11.47;;;;;;;12.00;63.49;100624.28;5073247;28;20131;-60
2021/11/11 06:03:25;;;;;;;20.90;12.30;;;;;;;11.95;63.67;100631.88;5073170;28;20076;-62
2021/11/11 06:05:52;;;;;;;25.27;12.13;;;;;;;11.85;63.91;100622.38;5065741;28;20071;-65
2021/11/11 06:08:18;;;;;;;29.10;12.20;;;;;;;11.75;64.25;100628.00;5080661;28;20548;-65
2021/11/11 06:10:45;;;;;;;21.83;10.63;;;;;;;11.63;64.67;100631.13;5070839;28;20120;-62
2021/11/11 06:13:12;;;;;;;17.97;8.07;;;;;;;11.43;64.95;100611.63;5071399;28;20068;-63
2021/11/11 06:15:39;;;;;;;18.70;11.00;;;;;;;11.47;65.16;100637.06;5068518;28;20128;-67
2021/11/11 06:18:06;;;;;;;17.73;10.97;;;;;;;11.36;65.13;100619.50;5062030;28;20080;-63
2021/11/11 06:20:39;;;;;;;22.73;10.83;;;;;;;11.39;65.21;100630.13;5064591;28;20130;-65
2021/11/11 06:23:07;;;;;;;17.87;10.00;;;;;;;11.31;65.46;100627.88;5068225;28;20123;-66
2021/11/11 06:25:34;;;;;;;21.53;12.20;;;;;;;11.33;65.23;100628.44;5056649;28;20036;-64
2021/11/11 06:28:02;;;;;;;18.10;10.13;;;;;;;11.26;65.48;100630.72;5066988;28;20488;-56
2021/11/11 06:30:29;;;;;;;19.20;9.63;;;;;;;11.21;65.97;100627.91;5065181;28;20136;-55
2021/11/11 06:32:55;;;;;;;16.07;8.97;;;;;;;11.15;66.07;100633.53;5067765;28;20136;-56
2021/11/11 06:35:26;;;;;;;14.10;8.27;;;;;;;11.02;66.32;100620.13;5064853;28;20048;-58
2021/11/11 06:37:53;;;;;;;19.57;9.97;;;;;;;11.06;66.29;100628.78;5063220;28;20499;-56
2021/11/11 06:40:20;;;;;;;14.03;8.53;;;;;;;11.10;66.52;100638.28;5069317;28;20486;-52
2021/11/11 06:42:47;;;;;;;14.83;8.57;;;;;;;11.11;66.34;100638.00;5065915;28;20052;-49
2021/11/11 06:45:15;;;;;;;21.20;9.70;;;;;;;11.17;66.13;100644.41;5069502;28;20491;-52
2021/11/11 06:47:42;;;;;;;17.30;9.87;;;;;;;11.13;65.94;100623.72;5067441;28;20139;-52
2021/11/11 06:50:11;;;;;;;18.10;8.83;;;;;;;11.24;66.07;100635.72;5065231;28;20127;-52
2021/11/11 06:52:39;;;;;;;16.77;8.33;;;;;;;11.18;66.27;100634.91;5065420;28;20095;-53
2021/11/11 06:55:07;;;;;;;23.03;10.57;;;;;;;11.17;66.19;100636.03;5069312;28;20084;-53
2021/11/11 06:57:35;;;;;;;17.33;8.20;;;;;;;11.18;66.16;100646.09;5064366;28;20143;-52
2021/11/11 07:00:06;;;;;;;20.53;7.43;;;;;;;11.23;65.72;100639.66;5062657;28;20080;-50
2021/11/11 07:02:33;;;;;;;19.27;9.60;;;;;;;11.04;66.15;100603.94;5068983;28;20439;-51
2021/11/11 07:05:00;;;;;;;20.17;10.87;;;;;;;11.19;66.16;100642.19;5068702;28;20153;-50
2021/11/11 07:07:27;;;;;;;15.87;10.13;;;;;;;11.23;66.20;100636.84;5073601;28;20489;-52
2021/11/11 07:09:54;;;;;;;20.57;9.87;;;;;;;11.09;66.01;100626.25;5079327;28;20127;-51
2021/11/11 07:12:20;;;;;;;20.57;11.43;;;;;;;11.20;65.71;100645.81;5070026;28;20072;-50
2021/11/11 07:14:47;;;;;;;18.43;9.93;;;;;;;11.23;65.59;100651.66;5053949;28;20095;-51
2021/11/11 07:17:14;;;;;;;17.03;9.53;;;;;;;11.22;65.53;100652.81;5091696;28;20044;-52
2021/11/11 07:19:42;;;;;;;19.23;9.73;;;;;;;11.24;65.43;100658.09;5096909;28;20055;-51
2021/11/11 07:22:09;;;;;;;19.73;9.90;;;;;;;11.23;65.51;100662.03;5090860;28;20134;-52
2021/11/11 07:24:36;;;;;;;26.13;10.27;;;;;;;11.20;65.53;100666.22;5089319;28;20135;-54
2021/11/11 07:27:03;;;;;;;18.93;9.60;;;;;;;11.15;65.72;100661.47;5089128;28;20510;-52
2021/11/11 07:29:30;;;;;;;15.50;8.77;;;;;;;11.07;65.83;100667.63;5094028;28;20070;-51
2021/11/11 07:31:57;;;;;;;17.40;8.97;;;;;;;10.87;66.50;100646.13;5090366;28;20518;-50
2021/11/11 07:34:25;;;;;;;17.57;8.33;;;;;;;10.86;66.53;100654.78;5057799;28;20050;-52
2021/11/11 07:36:53;;;;;;;12.13;5.63;;;;;;;10.84;67.13;100668.22;5088920;28;20463;-53
2021/11/11 07:39:21;;;;;;;17.80;7.70;;;;;;;10.79;67.18;100655.06;5090770;28;20098;-52
2021/11/11 07:41:51;;;;;;;8.90;4.53;;;;;;;10.77;67.09;100634.97;5087296;28;20056;-52
2021/11/11 07:44:18;;;;;;;8.77;5.57;;;;;;;11.03;67.29;100676.84;5085938;28;20127;-53
2021/11/11 07:46:44;;;;;;;8.83;5.57;;;;;;;11.00;67.21;100663.44;5097591;28;20135;-49
2021/11/11 07:49:11;;;;;;;14.77;7.47;;;;;;;11.18;66.87;100684.38;5092020;28;20075;-51
2021/11/11 07:51:39;;;;;;;8.70;5.80;;;;;;;11.22;66.83;100691.94;5096028;28;20071;-52
2021/11/11 07:54:06;;;;;;;11.17;5.63;;;;;;;11.43;66.15;100695.53;5089743;28;20055;-53
2021/11/11 07:56:35;;;;;;;18.47;10.40;;;;;;;11.70;65.75;100695.19;5091299;28;20447;-49
2021/11/11 07:59:03;;;;;;;15.32;8.90;;;;;;;11.94;65.07;100692.59;5091352;28;20055;-50
2021/11/11 08:01:31;;;;;;;16.03;8.87;;;;;;;12.26;64.56;100702.53;5089340;28;20131;-52
2021/11/11 08:03:58;;;;;;;18.97;10.50;;;;;;;12.51;64.08;100702.38;5096212;28;20040;-51
2021/11/11 08:06:25;;;;;;;17.30;9.80;;;;;;;12.78;63.36;100701.06;5091547;28;20078;-49
2021/11/11 08:08:52;;;;;;;22.63;10.93;;;;;;;13.00;63.01;100712.66;5090215;28;20080;-49
2021/11/11 08:11:20;;;;;;;19.13;11.03;;;;;;;13.13;62.54;100713.97;5093151;28;20478;-51
2021/11/11 08:13:49;;;;;;;23.33;10.80;;;;;;;13.51;62.18;100715.03;5091198;28;20106;-48
2021/11/11 08:16:16;;;;;;;21.67;9.60;;;;;;;14.02;61.63;100712.75;5089460;28;20131;-52
2021/11/11 08:18:43;;;;;;;19.07;9.60;;;;;;;14.46;61.14;100723.69;5089416;28;20052;-50
2021/11/11 08:21:10;;;;;;;17.60;8.90;;;;;;;14.87;60.46;100723.97;5090859;28;20139;-52
2021/11/11 08:23:36;;;;;;;17.67;10.23;;;;;;;15.16;59.79;100723.75;5089319;28;20131;-51
2021/11/11 08:26:05;;;;;;;17.27;10.03;;;;;;;15.20;59.14;100678.97;5091273;28;20082;-51
2021/11/11 08:28:34;;;;;;;14.57;9.23;;;;;;;15.82;58.33;100721.72;5087376;28;20040;-49
2021/11/11 08:31:01;;;;;;;16.33;8.17;;;;;;;16.22;57.48;100719.25;5088530;28;20127;-53
2021/11/11 08:33:28;;;;;;;19.13;9.43;;;;;;;16.33;56.71;100715.03;5088878;28;20408;-51
2021/11/11 08:35:55;;;;;;;17.40;10.00;;;;;;;16.67;56.05;100725.00;5089342;28;20037;-51
2021/11/11 08:38:22;;;;;;;19.23;9.35;;;;;;;16.80;55.32;100741.09;5088388;28;20119;-48
2021/11/11 08:40:49;;;;;;;14.95;9.50;;;;;;;17.02;55.55;100725.31;5081164;28;20143;-52
2021/11/11 08:43:16;;;;;;;16.38;9.80;;;;;;;17.71;55.27;100737.09;5091253;28;20470;-51
2021/11/11 08:45:44;;;;;;;18.02;8.85;;;;;;;18.13;53.78;100746.13;5073025;28;20507;-54
2021/11/11 08:48:11;;;;;;;15.82;8.63;;;;;;;18.37;53.56;100748.53;5087544;28;20123;-59
2021/11/11 08:50:38;;;;;;;17.48;8.55;;;;;;;18.78;52.85;100738.81;5094130;28;20436;-53
2021/11/11 08:53:08;;;;;;;18.08;8.70;;;;;;;19.34;52.54;100741.78;5083971;28;20476;-50
2021/11/11 08:55:35;;;;;;;16.92;9.55;;;;;;;19.66;51.80;100743.28;5095288;28;20072;-53
2021/11/11 08:58:05;;;;;;;16.13;9.27;;;;;;;19.94;50.83;100740.00;5095738;28;20552;-54
2021/11/11 09:00:39;;;;;;;16.67;9.32;;;;;;;20.26;50.18;100730.84;5094198;28;20074;-50
2021/11/11 09:03:06;;;;;;;17.77;9.30;;;;;;;20.87;49.65;100747.50;5083099;28;20048;-52
2021/11/11 09:05:36;;;;;;;12.85;9.43;;;;;;;21.23;48.43;100748.88;5078868;28;20068;-59
2021/11/11 09:08:04;;;;;;;15.75;9.20;;;;;;;21.44;48.41;100755.41;5086395;28;20044;-52
2021/11/11 09:10:33;;;;;;;16.42;9.43;;;;;;;21.76;47.45;100750.88;5081852;28;20051;-48
2021/11/11 09:13:14;;;;;;;19.27;9.07;;;;;;;22.43;46.56;100762.97;5090651;28;20047;-50
2021/11/11 09:15:41;;;;;;;14.57;8.75;;;;;;;23.13;45.37;100762.75;5076078;28;20086;-49
2021/11/11 09:18:08;;;;;;;16.45;8.95;;;;;;;23.45;43.78;100753.47;5055114;28;20099;-49
2021/11/11 09:20:52;;;;;;;13.50;7.85;;;;;;;23.34;42.38;100744.63;5073811;28;20506;-50
2021/11/11 09:23:19;;;;;;;11.82;8.25;;;;;;;23.48;42.48;100752.75;5072383;28;20585;-50
2021/11/11 09:25:48;;;;;;;15.88;8.32;;;;;;;22.78;40.59;100744.53;5073577;28;20451;-51
2021/11/11 09:28:15;;;;;;;15.55;8.68;;;;;;;22.19;41.66;100748.72;5070874;28;20067;-52
2021/11/11 09:30:42;;;;;;;17.30;8.68;;;;;;;22.48;41.76;100736.28;5073273;28;20087;-50
2021/11/11 09:33:09;;;;;;;13.30;8.25;;;;;;;22.62;41.28;100742.41;5071033;28;20083;-49
2021/11/11 09:35:37;;;;;;;20.88;8.82;;;;;;;22.36;41.59;100757.03;5069974;28;20131;-52
2021/11/11 09:38:04;;;;;;;17.92;9.25;;;;;;;22.30;41.30;100758.44;5074356;28;20057;-51
2021/11/11 09:40:31;;;;;;;13.32;8.45;;;;;;;22.35;41.68;100754.53;5071171;28;20491;-57
2021/11/11 09:42:59;;;;;;;15.65;8.88;;;;;;;23.29;41.12;100734.31;5073107;28;20083;-55
2021/11/11 09:45:31;;;;;;;14.75;8.63;;;;;;;23.93;39.04;100758.13;5071726;28;20080;-67
2021/11/11 09:47:58;;;;;;;15.15;9.00;;;;;;;24.24;39.57;100753.63;5073592;28;20044;-62
2021/11/11 09:50:27;;;;;;;16.75;8.55;;;;;;;24.72;38.84;100758.13;5073630;28;20468;-63
2021/11/11 09:52:54;;;;;;;;;;;;;;;24.61;40.97;100761.91;5072558;28;20068;-61
2021/11/11 10:00:56;;;;;;;14.75;10.05;;;;;;;26.33;37.66;100783.50;5072348;28;20382;-64
2021/11/11 10:03:24;;;;;;;16.25;8.70;;;;;;;26.83;37.15;100772.88;5071722;28;20044;-61
2021/11/11 10:05:51;;;;;;;13.07;9.43;;;;;;;27.24;35.79;100765.31;5072536;28;20442;-60
2021/11/11 10:08:39;;;;;;;15.40;9.38;;;;;;;27.38;36.65;100770.41;5067556;28;20083;-61
2021/11/11 10:11:13;;;;;;;20.77;10.98;;;;;;;27.44;35.54;100774.56;5069961;28;20132;-61
2021/11/11 10:13:40;;;;;;;17.80;11.05;;;;;;;27.75;35.43;100773.31;5060482;28;20136;-58
2021/11/11 10:16:14;;;;;;;20.23;10.80;;;;;;;27.77;34.38;100775.84;5074287;28;20569;-65
2021/11/11 10:18:45;;;;;;;14.88;10.65;;;;;;;27.91;34.20;100775.16;5088011;28;20439;-61
2021/11/11 10:21:32;;;;;;;15.40;9.63;;;;;;;27.58;34.49;100769.00;5081865;28;20618;-64
2021/11/11 10:24:46;;;;;;;16.63;10.23;;;;;;;27.36;34.88;100772.84;5096227;28;20131;-61
2021/11/11 10:30:18;;;;;;;14.63;9.43;;;;;;;26.91;33.78;100780.38;5088500;28;20625;-55
2021/11/11 10:32:48;;;;;;;17.33;11.05;;;;;;;26.64;33.54;100766.06;5092042;28;20143;-56
2021/11/11 10:35:30;;;;;;;18.42;10.95;;;;;;;27.05;33.99;100774.84;5086518;28;20082;-55
2021/11/11 10:38:00;;;;;;;18.30;9.98;;;;;;;27.05;32.64;100779.78;5078640;28;20548;-66
2021/11/11 10:40:37;;;;;;;15.23;9.55;;;;;;;26.85;33.52;100770.47;5080820;28;20103;-67
2021/11/11 10:43:16;;;;;;;16.48;9.90;;;;;;;26.59;32.67;100777.81;5074570;28;20075;-64
2021/11/11 10:45:46;;;;;;;16.10;9.63;;;;;;;26.80;33.22;100779.38;5073449;28;20083;-58
2021/11/11 10:48:17;;;;;;;18.58;10.13;;;;;;;27.34;32.67;100764.63;5081040;28;20048;-58
2021/11/11 10:50:45;;;;;;;17.45;10.20;;;;;;;28.14;32.32;100770.06;5067402;28;20128;-62
2021/11/11 10:53:18;;;;;;;19.35;10.35;;;;;;;28.97;31.12;100781.00;5075008;28;20169;-59
2021/11/11 10:55:50;;;;;;;13.25;8.65;;;;;;;29.65;30.42;100778.53;5084966;28;20123;-57
2021/11/11 10:58:39;;;;;;;17.75;10.35;;;;;;;30.25;30.82;100767.56;5067919;28;20132;-58
2021/11/11 11:01:07;;;;;;;14.02;9.65;;;;;;;30.61;29.59;100779.94;5082466;28;20089;-59
2021/11/11 11:03:43;;;;;;;19.60;10.77;;;;;;;31.02;30.01;100759.31;5088224;28;20067;-57
2021/11/11 11:06:12;;;;;;;15.05;10.57;;;;;;;31.50;28.91;100755.84;5081562;28;20452;-58
2021/11/11 11:08:42;;;;;;;;;;;;;;;31.92;29.92;100757.69;5087491;28;20072;-58
2021/11/11 11:11:22;;;;;;;13.38;9.48;;;;;;;32.19;28.38;100745.53;5085383;28;20538;-61
2021/11/11 11:13:58;;;;;;;17.52;9.57;;;;;;;32.19;27.80;100740.59;5085834;28;20048;-59
2021/11/11 11:16:30;;;;;;;17.77;10.00;;;;;;;32.31;27.31;100739.28;5083336;28;20535;-59
2021/11/11 11:19:03;;;;;;;15.73;10.07;;;;;;;32.87;26.64;100744.97;5075662;28;20055;-59
2021/11/11 11:21:37;;;;;;;15.70;9.82;;;;;;;33.10;26.15;100727.78;5069939;28;20068;-58
2021/11/11 11:24:15;;;;;;;15.20;10.90;;;;;;;33.48;26.03;100730.63;5071074;28;20040;-61
2021/11/11 11:26:48;;;;;;;13.90;10.50;;;;;;;33.69;25.39;100726.63;5070656;28;20072;-63
2021/11/11 11:29:34;;;;;;;15.95;10.32;;;;;;;34.05;25.64;100734.78;5069419;28;20155;-62
2021/11/11 11:32:13;;;;;;;15.27;10.70;;;;;;;34.26;24.88;100727.81;5064985;28;20152;-58
2021/11/11 11:34:46;;;;;;;16.15;10.23;;;;;;;34.65;24.39;100725.09;5069794;28;20148;-58
2021/11/11 11:37:17;;;;;;;13.32;10.85;;;;;;;34.83;23.80;100700.72;5062855;28;20083;-61
2021/11/11 11:39:47;;;;;;;19.05;12.57;;;;;;;35.31;23.34;100722.56;5068982;28;20079;-59
2021/11/11 11:42:18;;;;;;;16.83;11.90;;;;;;;35.33;23.27;100717.13;5069958;28;20159;-59
2021/11/11 11:45:13;;;;;;;18.30;11.32;;;;;;;35.53;22.89;100720.88;5069090;28;20171;-58
2021/11/11 11:47:45;;;;;;;15.10;10.02;;;;;;;35.78;22.83;100719.47;5061706;28;20440;-59
2021/11/11 11:50:19;;;;;;;21.00;10.48;;;;;;;35.93;22.27;100717.84;5071093;28;20147;-59
2021/11/11 11:52:53;;;;;;;17.73;10.68;;;;;;;36.04;22.33;100712.66;5068525;28;20511;-64